Arlington, New York
Current Conditions -  °F | °C
As of 1:53 AM on Wednesday 22 Oct 2014 (Local Time) from KPOU Reporting Station
Overcast Overcast  
Wind Chill: 53°   Ceiling: 700
Heat Index: 53°   Visibility: 7mi
Dew Point: 50°   Wind: 7mph
Humidity: 89%   Direction: 350°N
Pressure: 29.95"   Gusts: NA
Location:  41.69°N, 73.89°W
Report Text: KPOU 220553Z AUTO 35006KT 7SM OVC007 12/10 A2995 RMK AO2 SLP137 60010 T01170100 10122 20111 58004 TSNO
Loading
Personal Weather Stations






























Interactive Weather Map
Tropical Storm Tracking
New forecast layout! Learn more

10-Day Weather Forecast

Advertisements
Track Severe Weather on mobile